createdAt,value
2023-03-11T00:00:53.906Z,97264.41
2023-03-11T00:02:27.126Z,97265.97
2023-03-11T00:04:00.862Z,97258.81
2023-03-11T00:05:36.496Z,97267.78
2023-03-11T00:07:10.830Z,97254.66
2023-03-11T00:08:43.988Z,97263.44
2023-03-11T00:10:17.131Z,97258.38
2023-03-11T00:11:50.439Z,97251.50
2023-03-11T00:13:22.823Z,97250.53
2023-03-11T00:14:57.352Z,97245.38
2023-03-11T00:16:30.740Z,97247.16
2023-03-11T00:18:04.703Z,97242.81
2023-03-11T00:19:37.760Z,97242.00
2023-03-11T00:21:17.040Z,97242.81
2023-03-11T00:22:51.260Z,97243.03
2023-03-11T00:24:24.694Z,97245.59
2023-03-11T00:25:59.954Z,97237.66
2023-03-11T00:27:33.258Z,97236.72
2023-03-11T00:29:06.542Z,97244.13
2023-03-11T00:30:43.210Z,97245.69
2023-03-11T00:32:16.619Z,97247.97
2023-03-11T00:33:50.495Z,97253.47
2023-03-11T00:35:27.069Z,97244.59
2023-03-11T00:37:00.289Z,97250.00
2023-03-11T00:38:33.614Z,97247.97
2023-03-11T00:40:08.854Z,97244.81
2023-03-11T00:41:42.310Z,97245.84
2023-03-11T00:43:16.241Z,97241.59
2023-03-11T00:44:49.336Z,97244.81
2023-03-11T00:46:24.236Z,97238.22
2023-03-11T00:47:57.933Z,97244.13
2023-03-11T00:49:31.423Z,97245.94
2023-03-11T00:51:04.865Z,97233.53
2023-03-11T00:52:38.954Z,97227.75
2023-03-11T00:54:12.320Z,97230.81
2023-03-11T00:55:45.620Z,97234.63
2023-03-11T00:57:18.484Z,97235.81
2023-03-11T00:58:51.722Z,97232.69
2023-03-11T01:00:26.366Z,97228.22
2023-03-11T01:02:01.109Z,97219.22
2023-03-11T01:03:34.228Z,97217.50
2023-03-11T01:05:07.624Z,97212.00
2023-03-11T01:06:45.640Z,97208.88
2023-03-11T01:08:19.630Z,97208.44
2023-03-11T01:09:51.770Z,97202.53
2023-03-11T01:11:24.948Z,97207.09
2023-03-11T01:12:57.252Z,97211.88
2023-03-11T01:14:30.685Z,97201.31
2023-03-11T01:16:04.348Z,97202.97
2023-03-11T01:17:38.902Z,97192.66
2023-03-11T01:19:12.214Z,97189.03
2023-03-11T01:20:45.567Z,97193.38
2023-03-11T01:22:19.075Z,97192.41
2023-03-11T01:23:52.241Z,97189.25
2023-03-11T01:25:26.410Z,97194.53
2023-03-11T01:26:58.814Z,97194.75
2023-03-11T01:28:31.949Z,97182.50
2023-03-11T01:30:05.594Z,97189.94
2023-03-11T01:31:38.950Z,97190.69
2023-03-11T01:33:16.814Z,97192.72
2023-03-11T01:34:49.923Z,97183.97
2023-03-11T01:36:23.070Z,97170.03
2023-03-11T01:37:56.728Z,97167.41
2023-03-11T01:39:30.226Z,97163.19
2023-03-11T01:41:03.791Z,97159.16
2023-03-11T01:42:35.899Z,97156.00
2023-03-11T01:44:12.924Z,97150.91
2023-03-11T01:46:14.857Z,97153.88
2023-03-11T01:47:49.466Z,97151.97
2023-03-11T01:49:24.544Z,97136.97
2023-03-11T01:50:58.446Z,97145.97
2023-03-11T01:52:30.945Z,97131.03
2023-03-11T01:54:06.775Z,97133.47
2023-03-11T01:55:39.480Z,97129.97
2023-03-11T01:57:15.212Z,97125.53
2023-03-11T01:58:52.422Z,97121.91
2023-03-11T02:00:24.864Z,97129.13
2023-03-11T02:02:06.093Z,97129.34
2023-03-11T02:03:41.700Z,97134.03
2023-03-11T02:05:16.401Z,97127.25
2023-03-11T02:06:50.349Z,97138.25
2023-03-11T02:08:25.125Z,97127.66
2023-03-11T02:09:58.974Z,97132.75
2023-03-11T02:11:32.641Z,97129.34
2023-03-11T02:13:07.447Z,97134.63
2023-03-11T02:14:43.339Z,97139.91
2023-03-11T02:16:17.576Z,97136.09
2023-03-11T02:17:49.855Z,97146.56
2023-03-11T02:19:37.663Z,97145.59
2023-03-11T02:21:22.749Z,97146.47
2023-03-11T02:22:57.734Z,97136.22
2023-03-11T02:24:40.351Z,97139.91
2023-03-11T02:26:18.252Z,97139.16
2023-03-11T02:27:55.466Z,97136.53
2023-03-11T02:29:33.955Z,97139.41
2023-03-11T02:31:07.231Z,97135.06
2023-03-11T02:32:44.285Z,97141.81
2023-03-11T02:34:23.970Z,97136.53
2023-03-11T02:35:57.695Z,97141.38
2023-03-11T02:37:30.099Z,97141.38
2023-03-11T02:39:10.531Z,97133.66
2023-03-11T02:40:55.747Z,97139.72
2023-03-11T02:42:33.722Z,97136.84
2023-03-11T02:44:11.778Z,97141.19
2023-03-11T02:45:46.692Z,97140.31
2023-03-11T02:47:20.294Z,97129.13
2023-03-11T02:48:55.465Z,97144.31
2023-03-11T02:50:29.543Z,97142.41
2023-03-11T02:52:02.760Z,97144.44
2023-03-11T02:53:40.472Z,97147.72
2023-03-11T02:55:14.664Z,97144.75
2023-03-11T02:56:47.932Z,97134.78
2023-03-11T02:58:21.073Z,97139.00
2023-03-11T02:59:54.929Z,97130.94
2023-03-11T03:01:28.266Z,97129.06
2023-03-11T03:03:00.667Z,97128.19
2023-03-11T03:04:34.742Z,97123.97
2023-03-11T03:06:08.847Z,97139.22
2023-03-11T03:07:41.961Z,97145.34
2023-03-11T03:09:15.358Z,97154.47
2023-03-11T03:10:50.130Z,97165.47
2023-03-11T03:12:24.241Z,97170.16
2023-03-11T03:13:57.487Z,97166.97
2023-03-11T03:15:32.371Z,97169.09
2023-03-11T03:17:06.663Z,97161.50
2023-03-11T03:18:40.417Z,97155.50
2023-03-11T03:20:15.678Z,97159.81
2023-03-11T03:21:53.935Z,97160.47
2023-03-11T03:23:28.383Z,97159.38
2023-03-11T03:25:02.107Z,97159.78
2023-03-11T03:26:37.286Z,97155.34
2023-03-11T03:28:11.680Z,97159.59
2023-03-11T03:29:47.727Z,97153.28
2023-03-11T03:31:22.891Z,97153.28
2023-03-11T03:32:56.620Z,97144.84
2023-03-11T03:34:28.818Z,97148.88
2023-03-11T03:36:02.037Z,97144.22
2023-03-11T03:37:43.492Z,97138.53
2023-03-11T03:39:18.733Z,97146.56
2023-03-11T03:40:56.146Z,97150.34
2023-03-11T03:42:30.092Z,97155.84
2023-03-11T03:44:04.056Z,97156.09
2023-03-11T03:45:38.196Z,97162.00
2023-03-11T03:47:12.142Z,97156.91
2023-03-11T03:48:45.442Z,97156.50
2023-03-11T03:50:19.872Z,97147.31
2023-03-11T03:51:55.039Z,97157.53
2023-03-11T03:53:37.455Z,97148.84
2023-03-11T03:55:11.287Z,97163.66
2023-03-11T03:56:45.494Z,97167.22
2023-03-11T03:58:19.029Z,97171.66
2023-03-11T03:59:52.322Z,97165.34
2023-03-11T04:01:25.486Z,97165.34
2023-03-11T04:03:01.114Z,97161.72
2023-03-11T04:04:45.564Z,97160.47
2023-03-11T04:06:20.021Z,97156.50
2023-03-11T04:07:56.767Z,97165.59
2023-03-11T04:09:30.364Z,97156.50
2023-03-11T04:11:03.908Z,97151.22
2023-03-11T04:12:39.458Z,97158.84
2023-03-11T04:14:14.012Z,97154.38
2023-03-11T04:15:53.600Z,97156.09
2023-03-11T04:17:26.903Z,97164.00
2023-03-11T04:19:04.793Z,97166.41
2023-03-11T04:20:40.140Z,97162.59
2023-03-11T04:22:14.055Z,97169.59
2023-03-11T04:23:47.370Z,97167.69
2023-03-11T04:25:22.665Z,97176.97
2023-03-11T04:26:55.961Z,97179.72
2023-03-11T04:28:28.753Z,97180.78
2023-03-11T04:30:01.933Z,97185.09
2023-03-11T04:31:36.740Z,97191.84
2023-03-11T04:33:12.374Z,97189.97
2023-03-11T04:34:47.230Z,97199.38
2023-03-11T04:36:20.466Z,97200.13
2023-03-11T04:37:53.672Z,97203.47
2023-03-11T04:39:26.498Z,97218.38
2023-03-11T04:41:01.777Z,97216.47
2023-03-11T04:42:35.616Z,97218.16
2023-03-11T04:44:07.776Z,97220.69
2023-03-11T04:45:41.589Z,97224.31
2023-03-11T04:47:16.776Z,97224.50
2023-03-11T04:48:50.357Z,97222.84
2023-03-11T04:50:25.342Z,97220.09
2023-03-11T04:51:58.660Z,97231.72
2023-03-11T04:53:33.409Z,97232.53
2023-03-11T04:55:07.928Z,97224.09
2023-03-11T04:56:41.345Z,97239.84
2023-03-11T04:58:14.710Z,97231.28
2023-03-11T04:59:48.394Z,97230.75
2023-03-11T05:01:22.106Z,97221.56
2023-03-11T05:02:54.364Z,97219.22
2023-03-11T05:04:28.306Z,97218.63
2023-03-11T05:06:02.552Z,97219.34
2023-03-11T05:07:36.859Z,97222.84
2023-03-11T05:09:10.864Z,97205.31
2023-03-11T05:10:46.315Z,97212.16
2023-03-11T05:12:19.694Z,97223.69
2023-03-11T05:13:56.550Z,97237.41
2023-03-11T05:15:31.188Z,97240.56
2023-03-11T05:17:06.809Z,97221.16
2023-03-11T05:18:40.725Z,97219.53
2023-03-11T05:20:15.687Z,97217.56
2023-03-11T05:21:50.742Z,97224.09
2023-03-11T05:23:23.874Z,97217.66
2023-03-11T05:24:57.908Z,97232.44
2023-03-11T05:26:31.460Z,97233.19
2023-03-11T05:28:04.759Z,97232.94
2023-03-11T05:29:40.830Z,97230.84
2023-03-11T05:31:17.028Z,97227.22
2023-03-11T05:32:50.832Z,97231.13
2023-03-11T05:34:24.957Z,97236.50
2023-03-11T05:36:05.780Z,97230.53
2023-03-11T05:37:41.572Z,97238.56
2023-03-11T05:39:13.904Z,97239.59
2023-03-11T05:40:47.138Z,97243.97
2023-03-11T05:42:21.525Z,97245.22
2023-03-11T05:43:58.306Z,97251.47
2023-03-11T05:45:31.442Z,97246.50
2023-03-11T05:47:07.144Z,97254.66
2023-03-11T05:48:41.692Z,97248.56
2023-03-11T05:50:15.207Z,97256.88
2023-03-11T05:51:51.055Z,97260.88
2023-03-11T05:53:25.645Z,97253.13
2023-03-11T05:54:59.283Z,97260.28
2023-03-11T05:56:35.003Z,97264.91
2023-03-11T05:58:08.819Z,97267.38
2023-03-11T05:59:41.983Z,97260.19
2023-03-11T06:01:18.030Z,97262.53
2023-03-11T06:02:51.492Z,97256.78
2023-03-11T06:04:26.250Z,97258.03
2023-03-11T06:05:59.606Z,97264.47
2023-03-11T06:07:32.850Z,97259.88
2023-03-11T06:09:06.725Z,97264.53
2023-03-11T06:10:39.901Z,97270.50
2023-03-11T06:12:13.264Z,97261.09
2023-03-11T06:14:02.910Z,97260.75
2023-03-11T06:15:37.219Z,97258.94
2023-03-11T06:17:10.894Z,97262.88
2023-03-11T06:18:44.079Z,97261.44
2023-03-11T06:20:17.278Z,97251.88
2023-03-11T06:21:50.781Z,97254.31
2023-03-11T06:23:24.573Z,97251.00
2023-03-11T06:24:59.344Z,97246.38
2023-03-11T06:26:31.848Z,97253.44
2023-03-11T06:28:05.346Z,97251.03
2023-03-11T06:29:38.670Z,97253.44
2023-03-11T06:31:13.837Z,97254.97
2023-03-11T06:32:47.176Z,97244.31
2023-03-11T06:34:20.881Z,97242.78
2023-03-11T06:36:00.911Z,97245.84
2023-03-11T06:37:37.318Z,97240.25
2023-03-11T06:39:14.270Z,97239.97
2023-03-11T06:40:49.136Z,97247.00
2023-03-11T06:42:24.004Z,97250.47
2023-03-11T06:43:59.807Z,97244.44
2023-03-11T06:45:34.315Z,97252.84
2023-03-11T06:47:08.352Z,97250.03
2023-03-11T06:48:42.244Z,97253.38
2023-03-11T06:50:15.508Z,97258.00
2023-03-11T06:51:48.662Z,97252.16
2023-03-11T06:53:22.824Z,97248.56
2023-03-11T06:54:55.921Z,97245.41
2023-03-11T06:56:30.396Z,97241.66
2023-03-11T06:58:11.291Z,97247.59
2023-03-11T06:59:45.094Z,97244.22
2023-03-11T07:01:22.355Z,97247.06
2023-03-11T07:02:58.758Z,97244.72
2023-03-11T07:04:32.751Z,97233.19
2023-03-11T07:06:07.777Z,97244.53
2023-03-11T07:07:40.922Z,97240.19
2023-03-11T07:09:14.239Z,97246.94
2023-03-11T07:11:01.438Z,97246.56
2023-03-11T07:12:36.776Z,97244.47
2023-03-11T07:14:10.195Z,97249.28
2023-03-11T07:15:47.252Z,97236.69
2023-03-11T07:17:20.398Z,97245.38
2023-03-11T07:18:59.151Z,97252.84
2023-03-11T07:20:32.285Z,97258.34
2023-03-11T07:22:05.418Z,97249.38
2023-03-11T07:23:38.511Z,97246.56
2023-03-11T07:25:12.038Z,97249.53
2023-03-11T07:26:45.128Z,97242.53
2023-03-11T07:28:20.189Z,97250.25
2023-03-11T07:29:53.431Z,97240.56
2023-03-11T07:31:29.026Z,97243.97
2023-03-11T07:33:02.144Z,97238.38
2023-03-11T07:34:35.387Z,97239.81
2023-03-11T07:36:10.190Z,97250.13
2023-03-11T07:37:43.649Z,97245.78
2023-03-11T07:39:19.146Z,97240.50
2023-03-11T07:40:59.460Z,97242.78
2023-03-11T07:42:33.998Z,97236.94
2023-03-11T07:44:09.965Z,97235.56
2023-03-11T07:45:43.176Z,97226.06
2023-03-11T07:47:16.329Z,97225.50
2023-03-11T07:48:51.382Z,97226.66
2023-03-11T07:50:24.902Z,97220.56
2023-03-11T07:51:58.041Z,97216.84
2023-03-11T07:53:31.332Z,97219.38
2023-03-11T07:55:04.621Z,97204.53
2023-03-11T07:56:38.988Z,97216.06
2023-03-11T07:58:12.232Z,97206.13
2023-03-11T07:59:46.759Z,97195.88
2023-03-11T08:01:22.483Z,97204.56
2023-03-11T08:02:55.836Z,97201.78
2023-03-11T08:04:28.953Z,97195.91
2023-03-11T08:06:02.291Z,97193.09
2023-03-11T08:07:35.447Z,97193.69
2023-03-11T08:09:10.601Z,97191.44
2023-03-11T08:10:43.774Z,97193.09
2023-03-11T08:12:17.768Z,97198.16
2023-03-11T08:13:51.820Z,97199.28
2023-03-11T08:15:31.032Z,97200.81
2023-03-11T08:17:05.473Z,97186.09
2023-03-11T08:18:38.611Z,97184.69
2023-03-11T08:20:13.035Z,97194.22
2023-03-11T08:21:46.717Z,97189.31
2023-03-11T08:23:20.092Z,97189.72
2023-03-11T08:24:54.980Z,97197.28
2023-03-11T08:26:27.332Z,97191.91
2023-03-11T08:28:01.008Z,97192.97
2023-03-11T08:29:34.102Z,97186.06
2023-03-11T08:31:15.302Z,97185.59
2023-03-11T08:32:49.358Z,97186.59
2023-03-11T08:34:22.964Z,97179.66
2023-03-11T08:35:56.566Z,97175.00
2023-03-11T08:37:31.577Z,97166.50
2023-03-11T08:39:05.347Z,97169.41
2023-03-11T08:40:38.742Z,97169.66
2023-03-11T08:42:11.934Z,97168.66
2023-03-11T08:43:47.273Z,97168.81
2023-03-11T08:45:23.262Z,97160.84
2023-03-11T08:47:02.066Z,97150.53
2023-03-11T08:48:39.385Z,97156.97
2023-03-11T08:50:16.929Z,97156.31
2023-03-11T08:51:50.161Z,97166.56
2023-03-11T08:53:23.892Z,97147.06
2023-03-11T08:54:57.028Z,97158.63
2023-03-11T08:56:30.578Z,97147.94
2023-03-11T08:58:04.150Z,97138.88
2023-03-11T08:59:38.172Z,97151.41
2023-03-11T09:01:13.491Z,97157.19
2023-03-11T09:02:48.809Z,97149.44
2023-03-11T09:04:21.988Z,97147.78
2023-03-11T09:05:58.873Z,97142.13
2023-03-11T09:07:31.984Z,97143.91
2023-03-11T09:09:05.367Z,97136.53
2023-03-11T09:10:38.503Z,97137.53
2023-03-11T09:12:14.334Z,97133.81
2023-03-11T09:13:47.788Z,97135.81
2023-03-11T09:15:21.133Z,97135.13
2023-03-11T09:16:54.312Z,97139.81
2023-03-11T09:18:29.725Z,97133.41
2023-03-11T09:20:03.577Z,97125.69
2023-03-11T09:21:37.706Z,97131.91
2023-03-11T09:23:13.521Z,97130.59
2023-03-11T09:24:47.420Z,97132.97
2023-03-11T09:26:20.575Z,97122.16
2023-03-11T09:27:54.006Z,97124.38
2023-03-11T09:29:27.151Z,97113.59
2023-03-11T09:31:00.941Z,97123.28
2023-03-11T09:32:34.176Z,97115.47
2023-03-11T09:34:08.888Z,97116.50
2023-03-11T09:35:42.143Z,97113.84
2023-03-11T09:37:15.587Z,97106.09
2023-03-11T09:38:49.952Z,97109.50
2023-03-11T09:40:26.650Z,97105.88
2023-03-11T09:42:05.013Z,97112.69
2023-03-11T09:44:06.557Z,97099.91
2023-03-11T09:45:47.308Z,97106.31
2023-03-11T09:47:39.686Z,97098.94
2023-03-11T09:49:23.787Z,97101.63
2023-03-11T09:51:00.491Z,97095.44
2023-03-11T09:52:42.311Z,97100.28
2023-03-11T09:54:15.720Z,97095.25
2023-03-11T09:55:51.847Z,97095.41
2023-03-11T09:57:29.495Z,97097.41
2023-03-11T09:59:06.102Z,97079.47
2023-03-11T10:00:40.021Z,97084.53
2023-03-11T10:02:17.894Z,97082.81
2023-03-11T10:03:53.153Z,97078.97
2023-03-11T10:05:29.751Z,97082.44
2023-03-11T10:07:07.558Z,97080.75
2023-03-11T10:08:46.992Z,97074.53
2023-03-11T10:10:20.365Z,97078.63
2023-03-11T10:12:12.101Z,97072.41
2023-03-11T10:13:54.080Z,97074.44
2023-03-11T10:15:40.030Z,97072.75
2023-03-11T10:17:22.938Z,97061.88
2023-03-11T10:19:08.825Z,97063.38
2023-03-11T10:20:55.196Z,97059.38
2023-03-11T10:22:34.760Z,97044.59
2023-03-11T10:24:34.603Z,97061.41
2023-03-11T10:26:15.081Z,97058.53
2023-03-11T10:27:53.026Z,97051.84
2023-03-11T10:29:29.936Z,97059.84
2023-03-11T10:31:08.961Z,97053.91
2023-03-11T10:32:47.801Z,97056.44
2023-03-11T10:34:27.285Z,97052.72
2023-03-11T10:36:06.134Z,97052.91
2023-03-11T10:37:49.845Z,97055.91
2023-03-11T10:39:24.536Z,97043.41
2023-03-11T10:41:03.461Z,97048.63
2023-03-11T10:42:37.360Z,97053.31
2023-03-11T10:44:15.508Z,97040.25
2023-03-11T10:45:51.288Z,97048.28
2023-03-11T10:47:26.224Z,97049.31
2023-03-11T10:48:59.488Z,97040.94
2023-03-11T10:50:36.802Z,97032.09
2023-03-11T10:52:11.976Z,97027.03
2023-03-11T10:53:48.311Z,97035.09
2023-03-11T10:55:21.454Z,97031.13
2023-03-11T10:56:58.025Z,97043.50
2023-03-11T10:58:32.572Z,97029.41
2023-03-11T11:00:12.460Z,97018.53
2023-03-11T11:01:56.574Z,97020.00
2023-03-11T11:03:30.464Z,97031.03
2023-03-11T11:05:22.911Z,97027.72
2023-03-11T11:06:56.198Z,97035.06
2023-03-11T11:08:31.985Z,97037.06
2023-03-11T11:10:16.709Z,97042.88
2023-03-11T11:12:04.273Z,97042.88
2023-03-11T11:13:37.548Z,97034.19
2023-03-11T11:15:22.981Z,97039.31
2023-03-11T11:16:56.304Z,97025.97
2023-03-11T11:18:33.606Z,97037.66
2023-03-11T11:20:18.333Z,97043.56
2023-03-11T11:21:52.487Z,97052.53
2023-03-11T11:23:28.577Z,97054.97
2023-03-11T11:25:03.129Z,97069.25
2023-03-11T11:26:36.894Z,97070.81
2023-03-11T11:28:17.893Z,97069.72
2023-03-11T11:30:14.784Z,97057.09
2023-03-11T11:31:49.016Z,97052.31
2023-03-11T11:33:27.002Z,97051.09
2023-03-11T11:35:02.264Z,97051.75
2023-03-11T11:36:38.697Z,97054.81
2023-03-11T11:38:12.670Z,97050.63
2023-03-11T11:39:52.001Z,97051.59
2023-03-11T11:41:28.439Z,97073.03
2023-03-11T11:43:05.944Z,97052.56
2023-03-11T11:44:39.540Z,97051.72
2023-03-11T11:46:21.307Z,97090.31
2023-03-11T11:47:58.514Z,97087.38
2023-03-11T11:49:34.514Z,97079.50
2023-03-11T11:51:16.632Z,97068.13
2023-03-11T11:52:57.577Z,97078.38
2023-03-11T11:54:35.547Z,97076.28
2023-03-11T11:56:08.953Z,97069.16
2023-03-11T11:57:43.825Z,97073.63
2023-03-11T11:59:20.033Z,97073.06
2023-03-11T12:01:16.434Z,97077.84
2023-03-11T12:03:05.645Z,97075.03
2023-03-11T12:04:56.282Z,97073.88
2023-03-11T12:06:34.691Z,97086.19
2023-03-11T12:08:15.712Z,97073.28
2023-03-11T12:09:57.573Z,97082.47
2023-03-11T12:11:37.376Z,97079.38
2023-03-11T12:13:42.267Z,97089.16
2023-03-11T12:15:20.896Z,97087.00
2023-03-11T12:16:58.386Z,97095.50
2023-03-11T12:18:37.301Z,97104.31
2023-03-11T12:20:16.081Z,97109.75
2023-03-11T12:22:06.784Z,97109.47
2023-03-11T12:23:55.128Z,97113.22
2023-03-11T12:25:34.205Z,97113.88
2023-03-11T12:27:22.216Z,97102.06
2023-03-11T12:29:01.142Z,97104.69
2023-03-11T12:30:38.137Z,97109.56
2023-03-11T12:32:23.584Z,97097.28
2023-03-11T12:34:00.243Z,97116.53
2023-03-11T12:35:36.269Z,97093.28
2023-03-11T12:37:17.357Z,97091.16
2023-03-11T12:38:51.979Z,97079.53
2023-03-11T12:40:51.370Z,97058.38
2023-03-11T12:42:26.354Z,97046.19
2023-03-11T12:44:05.983Z,97059.91
2023-03-11T12:45:49.994Z,97064.44
2023-03-11T12:47:29.125Z,97055.03
2023-03-11T12:49:13.676Z,97061.66
2023-03-11T12:50:47.409Z,97068.22
2023-03-11T12:52:27.586Z,97064.94
2023-03-11T12:54:20.879Z,97071.00
2023-03-11T12:56:04.402Z,97067.47
2023-03-11T12:57:49.464Z,97067.19
2023-03-11T12:59:48.303Z,97068.19
2023-03-11T13:01:35.690Z,97068.19
2023-03-11T13:03:36.254Z,97067.50
2023-03-11T13:05:20.961Z,97074.56
2023-03-11T13:07:32.841Z,97077.53
2023-03-11T13:09:06.185Z,97074.59
2023-03-11T13:10:41.696Z,97070.06
2023-03-11T13:12:41.374Z,97073.97
2023-03-11T13:14:30.494Z,97072.00
2023-03-11T13:16:38.698Z,97069.69
2023-03-11T13:18:25.433Z,97064.31
2023-03-11T13:19:59.971Z,97064.50
2023-03-11T13:21:39.761Z,97062.06
2023-03-11T13:23:24.252Z,97059.72
2023-03-11T13:24:57.577Z,97058.25
2023-03-11T13:26:38.238Z,97062.09
2023-03-11T13:28:33.437Z,97066.59
2023-03-11T13:30:15.796Z,97075.13
2023-03-11T13:32:03.457Z,97077.13
2023-03-11T13:33:53.666Z,97073.44
2023-03-11T13:35:41.842Z,97082.97
2023-03-11T13:37:30.656Z,97083.81
2023-03-11T13:39:21.205Z,97079.19
2023-03-11T13:40:54.896Z,97079.25
2023-03-11T13:42:31.602Z,97076.59
2023-03-11T13:44:15.876Z,97074.09
2023-03-11T13:45:54.869Z,97065.25
2023-03-11T13:47:30.112Z,97083.66
2023-03-11T13:49:08.114Z,97071.91
2023-03-11T13:50:45.422Z,97077.94
2023-03-11T13:52:26.748Z,97078.53
2023-03-11T13:54:04.274Z,97077.69
2023-03-11T13:55:42.288Z,97084.44
2023-03-11T13:57:25.844Z,97096.44
2023-03-11T13:59:17.735Z,97088.06
2023-03-11T14:00:55.241Z,97092.13
2023-03-11T14:02:28.960Z,97093.91
2023-03-11T14:04:02.212Z,97088.34
2023-03-11T14:05:38.708Z,97087.50
2023-03-11T14:07:16.239Z,97089.47
2023-03-11T14:08:55.183Z,97100.50
2023-03-11T14:10:30.428Z,97107.22
2023-03-11T14:12:07.962Z,97096.22
2023-03-11T14:13:43.083Z,97095.00
2023-03-11T14:15:19.350Z,97121.06
2023-03-11T14:16:54.395Z,97116.47
2023-03-11T14:18:34.665Z,97121.38
2023-03-11T14:20:14.950Z,97120.50
2023-03-11T14:21:50.730Z,97123.38
2023-03-11T14:23:28.340Z,97133.47
2023-03-11T14:25:06.198Z,97124.44
2023-03-11T14:26:39.513Z,97123.50
2023-03-11T14:28:21.385Z,97140.22
2023-03-11T14:29:54.900Z,97129.09
2023-03-11T14:31:33.062Z,97127.97
2023-03-11T14:33:26.319Z,97129.22
2023-03-11T14:35:00.351Z,97143.59
2023-03-11T14:36:42.556Z,97137.09
2023-03-11T14:38:22.795Z,97141.28
2023-03-11T14:39:55.887Z,97134.59
2023-03-11T14:41:29.809Z,97142.53
2023-03-11T14:43:06.125Z,97137.19
2023-03-11T14:44:42.550Z,97139.63
2023-03-11T14:46:21.656Z,97156.44
2023-03-11T14:48:00.832Z,97162.41
2023-03-11T14:49:36.112Z,97161.25
2023-03-11T14:51:16.721Z,97156.22
2023-03-11T14:52:53.911Z,97165.97
2023-03-11T14:54:30.921Z,97155.75
2023-03-11T14:56:08.002Z,97153.22
2023-03-11T14:57:44.278Z,97162.25
2023-03-11T14:59:23.189Z,97157.59
2023-03-11T15:01:03.636Z,97163.41
2023-03-11T15:02:47.047Z,97179.19
2023-03-11T15:04:29.373Z,97176.44
2023-03-11T15:06:07.367Z,97179.78
2023-03-11T15:07:40.693Z,97180.09
2023-03-11T15:09:16.043Z,97180.97
2023-03-11T15:11:21.409Z,97190.84
2023-03-11T15:13:06.330Z,97201.81
2023-03-11T15:14:52.779Z,97202.72
2023-03-11T15:16:31.573Z,97209.25
2023-03-11T15:18:05.594Z,97214.06
2023-03-11T15:19:38.777Z,97221.13
2023-03-11T15:21:19.100Z,97218.63
2023-03-11T15:22:58.314Z,97223.13
2023-03-11T15:24:34.124Z,97223.44
2023-03-11T15:26:07.576Z,97239.44
2023-03-11T15:27:41.316Z,97226.91
2023-03-11T15:29:16.685Z,97245.44
2023-03-11T15:30:50.210Z,97251.19
2023-03-11T15:32:37.581Z,97255.41
2023-03-11T15:34:27.443Z,97264.28
2023-03-11T15:36:00.710Z,97260.47
2023-03-11T15:37:36.017Z,97277.03
2023-03-11T15:39:14.561Z,97277.72
2023-03-11T15:40:54.120Z,97283.31
2023-03-11T15:42:27.836Z,97287.50
2023-03-11T15:44:03.145Z,97292.66
2023-03-11T15:45:38.166Z,97301.56
2023-03-11T15:47:15.414Z,97322.50
2023-03-11T15:48:48.999Z,97313.84
2023-03-11T15:50:37.213Z,97321.91
2023-03-11T15:52:13.953Z,97323.34
2023-03-11T15:53:48.947Z,97331.53
2023-03-11T15:55:22.591Z,97326.22
2023-03-11T15:56:57.390Z,97354.69
2023-03-11T15:58:32.263Z,97336.75
2023-03-11T16:00:08.806Z,97376.69
2023-03-11T16:01:42.294Z,97375.50
2023-03-11T16:03:15.918Z,97382.09
2023-03-11T16:04:49.323Z,97383.94
2023-03-11T16:06:23.132Z,97402.19
2023-03-11T16:07:56.697Z,97390.16
2023-03-11T16:09:33.016Z,97399.34
2023-03-11T16:11:07.331Z,97420.31
2023-03-11T16:12:42.640Z,97441.97
2023-03-11T16:14:17.568Z,97451.22
2023-03-11T16:15:50.792Z,97456.25
2023-03-11T16:17:24.636Z,97465.84
2023-03-11T16:18:57.976Z,97491.66
2023-03-11T16:20:34.440Z,97488.56
2023-03-11T16:22:07.644Z,97499.34
2023-03-11T16:23:51.171Z,97483.91
2023-03-11T16:25:28.902Z,97492.00
2023-03-11T16:27:02.063Z,97495.16
2023-03-11T16:28:35.419Z,97497.34
2023-03-11T16:30:10.131Z,97515.44
2023-03-11T16:31:43.329Z,97494.41
2023-03-11T16:33:16.550Z,97521.94
2023-03-11T16:34:49.933Z,97507.34
2023-03-11T16:36:23.530Z,97522.78
2023-03-11T16:37:56.833Z,97530.41
2023-03-11T16:39:30.052Z,97528.75
2023-03-11T16:41:05.136Z,97531.50
2023-03-11T16:42:38.476Z,97553.09
2023-03-11T16:44:11.849Z,97551.97
2023-03-11T16:45:45.043Z,97569.22
2023-03-11T16:47:18.510Z,97582.47
2023-03-11T16:48:53.567Z,97571.13
2023-03-11T16:50:27.247Z,97540.50
2023-03-11T16:52:00.485Z,97580.88
2023-03-11T16:53:33.718Z,97567.53
2023-03-11T16:55:07.738Z,97582.25
2023-03-11T16:56:42.451Z,97571.66
2023-03-11T16:58:16.583Z,97595.53
2023-03-11T16:59:50.182Z,97587.69
2023-03-11T17:01:23.760Z,97605.69
2023-03-11T17:02:57.265Z,97598.78
2023-03-11T17:04:30.524Z,97606.09
2023-03-11T17:06:04.643Z,97611.69
2023-03-11T17:07:39.700Z,97613.81
2023-03-11T17:09:13.293Z,97614.00
2023-03-11T17:10:47.089Z,97633.47
2023-03-11T17:12:23.202Z,97620.34
2023-03-11T17:14:13.675Z,97643.88
2023-03-11T17:15:58.544Z,97641.94
2023-03-11T17:17:31.725Z,97650.31
2023-03-11T17:19:05.002Z,97647.66
2023-03-11T17:20:40.547Z,97666.53
2023-03-11T17:22:14.325Z,97662.38
2023-03-11T17:23:47.589Z,97670.41
2023-03-11T17:25:20.839Z,97673.66
2023-03-11T17:26:53.977Z,97676.59
2023-03-11T17:28:31.109Z,97679.25
2023-03-11T17:30:07.169Z,97686.72
2023-03-11T17:31:40.391Z,97689.00
2023-03-11T17:33:13.631Z,97695.88
2023-03-11T17:34:46.985Z,97693.06
2023-03-11T17:36:20.470Z,97695.59
2023-03-11T17:37:53.746Z,97714.88
2023-03-11T17:39:26.941Z,97714.41
2023-03-11T17:41:00.650Z,97726.69
2023-03-11T17:42:33.848Z,97722.69
2023-03-11T17:44:08.710Z,97729.50
2023-03-11T17:45:42.574Z,97734.56
2023-03-11T17:47:15.853Z,97736.06
2023-03-11T17:48:49.663Z,97738.72
2023-03-11T17:50:23.153Z,97742.31
2023-03-11T17:51:56.374Z,97751.31
2023-03-11T17:53:29.499Z,97755.75
2023-03-11T17:55:02.651Z,97759.16
2023-03-11T17:56:35.871Z,97760.84
2023-03-11T17:58:09.136Z,97769.44
2023-03-11T17:59:43.857Z,97766.13
2023-03-11T18:01:19.010Z,97773.34
2023-03-11T18:02:52.634Z,97777.97
2023-03-11T18:04:25.847Z,97766.53
2023-03-11T18:06:00.868Z,97779.97
2023-03-11T18:07:33.916Z,97774.66
2023-03-11T18:09:07.496Z,97780.69
2023-03-11T18:10:40.683Z,97776.94
2023-03-11T18:12:13.856Z,97788.44
2023-03-11T18:13:47.567Z,97775.81
2023-03-11T18:15:22.805Z,97779.78
2023-03-11T18:16:55.965Z,97781.28
2023-03-11T18:18:29.794Z,97788.94
2023-03-11T18:20:03.380Z,97796.56
2023-03-11T18:21:36.915Z,97795.63
2023-03-11T18:23:10.083Z,97794.09
2023-03-11T18:24:43.405Z,97793.81
2023-03-11T18:26:19.578Z,97804.13
2023-03-11T18:27:53.239Z,97806.78
2023-03-11T18:29:26.375Z,97809.31
2023-03-11T18:31:07.080Z,97814.16
2023-03-11T18:32:40.383Z,97812.25
2023-03-11T18:34:14.945Z,97813.56
2023-03-11T18:35:48.205Z,97818.59
2023-03-11T18:37:21.430Z,97824.50
2023-03-11T18:38:56.545Z,97828.03
2023-03-11T18:40:29.836Z,97836.44
2023-03-11T18:42:03.199Z,97834.09
2023-03-11T18:43:36.320Z,97841.72
2023-03-11T18:45:12.255Z,97832.84
2023-03-11T18:46:46.902Z,97837.75
2023-03-11T18:48:20.099Z,97836.81
2023-03-11T18:49:54.858Z,97845.78
2023-03-11T18:51:29.696Z,97851.19
2023-03-11T18:53:03.012Z,97847.59